sensor_id;sensor_type;location;lat;lon;timestamp;P1;durP1;ratioP1;P2;durP2;ratioP2
3261;SDS011;1643;47.746;9.000;2023-05-07T00:01:14;3.70;;;3.40;;
3261;SDS011;1643;47.746;9.000;2023-05-07T00:03:40;7.53;;;3.00;;
3261;SDS011;1643;47.746;9.000;2023-05-07T00:06:06;4.07;;;3.10;;
3261;SDS011;1643;47.746;9.000;2023-05-07T00:08:32;3.13;;;2.90;;
3261;SDS011;1643;47.746;9.000;2023-05-07T00:10:57;3.13;;;2.80;;
3261;SDS011;1643;47.746;9.000;2023-05-07T00:13:23;2.83;;;2.63;;
3261;SDS011;1643;47.746;9.000;2023-05-07T00:15:49;6.07;;;2.93;;
3261;SDS011;1643;47.746;9.000;2023-05-07T00:18:14;2.97;;;2.50;;
3261;SDS011;1643;47.746;9.000;2023-05-07T00:20:40;6.30;;;3.20;;
3261;SDS011;1643;47.746;9.000;2023-05-07T00:23:06;3.13;;;2.93;;
3261;SDS011;1643;47.746;9.000;2023-05-07T00:25:32;4.50;;;2.83;;
3261;SDS011;1643;47.746;9.000;2023-05-07T00:27:57;4.40;;;3.60;;
3261;SDS011;1643;47.746;9.000;2023-05-07T00:30:28;10.70;;;3.43;;
3261;SDS011;1643;47.746;9.000;2023-05-07T00:32:54;6.83;;;3.40;;
3261;SDS011;1643;47.746;9.000;2023-05-07T00:35:19;4.03;;;3.33;;
3261;SDS011;1643;47.746;9.000;2023-05-07T00:37:45;2.33;;;2.23;;
3261;SDS011;1643;47.746;9.000;2023-05-07T00:40:10;2.60;;;2.40;;
3261;SDS011;1643;47.746;9.000;2023-05-07T00:42:36;3.70;;;2.93;;
3261;SDS011;1643;47.746;9.000;2023-05-07T00:45:02;3.33;;;3.03;;
3261;SDS011;1643;47.746;9.000;2023-05-07T00:47:28;3.30;;;3.00;;
3261;SDS011;1643;47.746;9.000;2023-05-07T00:49:54;2.90;;;2.70;;
3261;SDS011;1643;47.746;9.000;2023-05-07T00:52:20;2.73;;;2.53;;
3261;SDS011;1643;47.746;9.000;2023-05-07T00:54:49;4.43;;;2.70;;
3261;SDS011;1643;47.746;9.000;2023-05-07T00:57:15;2.90;;;2.70;;
3261;SDS011;1643;47.746;9.000;2023-05-07T00:59:41;4.10;;;2.90;;
3261;SDS011;1643;47.746;9.000;2023-05-07T01:02:06;3.60;;;3.13;;
3261;SDS011;1643;47.746;9.000;2023-05-07T01:04:32;3.13;;;2.83;;
3261;SDS011;1643;47.746;9.000;2023-05-07T01:06:58;4.50;;;3.03;;
3261;SDS011;1643;47.746;9.000;2023-05-07T01:09:26;3.37;;;3.10;;
3261;SDS011;1643;47.746;9.000;2023-05-07T01:11:53;7.50;;;3.10;;
3261;SDS011;1643;47.746;9.000;2023-05-07T01:14:20;3.50;;;3.20;;
3261;SDS011;1643;47.746;9.000;2023-05-07T01:16:46;3.20;;;2.90;;
3261;SDS011;1643;47.746;9.000;2023-05-07T01:19:13;3.00;;;2.80;;
3261;SDS011;1643;47.746;9.000;2023-05-07T01:21:44;3.10;;;2.83;;
3261;SDS011;1643;47.746;9.000;2023-05-07T01:24:13;4.90;;;2.60;;
3261;SDS011;1643;47.746;9.000;2023-05-07T01:26:39;2.70;;;2.50;;
3261;SDS011;1643;47.746;9.000;2023-05-07T01:29:05;3.80;;;3.47;;
3261;SDS011;1643;47.746;9.000;2023-05-07T01:31:32;4.03;;;3.20;;
3261;SDS011;1643;47.746;9.000;2023-05-07T01:33:59;3.67;;;3.10;;
3261;SDS011;1643;47.746;9.000;2023-05-07T01:36:26;4.13;;;3.77;;
3261;SDS011;1643;47.746;9.000;2023-05-07T01:38:55;4.00;;;3.70;;
3261;SDS011;1643;47.746;9.000;2023-05-07T01:41:22;3.40;;;3.10;;
3261;SDS011;1643;47.746;9.000;2023-05-07T01:43:49;4.70;;;3.43;;
3261;SDS011;1643;47.746;9.000;2023-05-07T01:46:15;3.07;;;2.77;;
3261;SDS011;1643;47.746;9.000;2023-05-07T01:48:43;3.03;;;2.83;;
3261;SDS011;1643;47.746;9.000;2023-05-07T01:51:10;3.47;;;3.17;;
3261;SDS011;1643;47.746;9.000;2023-05-07T01:53:37;2.90;;;2.70;;
3261;SDS011;1643;47.746;9.000;2023-05-07T01:56:03;2.87;;;2.60;;
3261;SDS011;1643;47.746;9.000;2023-05-07T01:58:29;3.00;;;2.60;;
3261;SDS011;1643;47.746;9.000;2023-05-07T02:00:54;7.03;;;3.13;;
3261;SDS011;1643;47.746;9.000;2023-05-07T02:03:20;3.40;;;3.10;;
3261;SDS011;1643;47.746;9.000;2023-05-07T02:05:45;6.80;;;2.87;;
3261;SDS011;1643;47.746;9.000;2023-05-07T02:08:11;6.90;;;3.43;;
3261;SDS011;1643;47.746;9.000;2023-05-07T02:10:37;4.67;;;3.20;;
3261;SDS011;1643;47.746;9.000;2023-05-07T02:13:02;3.83;;;2.87;;
3261;SDS011;1643;47.746;9.000;2023-05-07T02:15:28;5.07;;;3.47;;
3261;SDS011;1643;47.746;9.000;2023-05-07T02:18:01;2.87;;;2.67;;
3261;SDS011;1643;47.746;9.000;2023-05-07T02:20:28;3.23;;;2.93;;
3261;SDS011;1643;47.746;9.000;2023-05-07T02:22:54;3.40;;;3.10;;
3261;SDS011;1643;47.746;9.000;2023-05-07T02:25:20;3.60;;;3.30;;
3261;SDS011;1643;47.746;9.000;2023-05-07T02:27:45;3.27;;;2.97;;
3261;SDS011;1643;47.746;9.000;2023-05-07T02:30:11;3.17;;;2.87;;
3261;SDS011;1643;47.746;9.000;2023-05-07T02:32:37;3.10;;;2.80;;
3261;SDS011;1643;47.746;9.000;2023-05-07T02:35:02;3.00;;;2.80;;
3261;SDS011;1643;47.746;9.000;2023-05-07T02:37:28;3.60;;;3.40;;
3261;SDS011;1643;47.746;9.000;2023-05-07T02:39:54;6.77;;;3.40;;
3261;SDS011;1643;47.746;9.000;2023-05-07T02:42:20;3.23;;;2.93;;
3261;SDS011;1643;47.746;9.000;2023-05-07T02:44:45;3.33;;;3.03;;
3261;SDS011;1643;47.746;9.000;2023-05-07T02:47:11;3.67;;;3.40;;
3261;SDS011;1643;47.746;9.000;2023-05-07T02:49:38;3.87;;;2.87;;
3261;SDS011;1643;47.746;9.000;2023-05-07T02:52:04;3.20;;;2.90;;
3261;SDS011;1643;47.746;9.000;2023-05-07T02:54:29;2.77;;;2.60;;
3261;SDS011;1643;47.746;9.000;2023-05-07T02:56:55;3.30;;;3.00;;
3261;SDS011;1643;47.746;9.000;2023-05-07T02:59:21;3.00;;;2.73;;
3261;SDS011;1643;47.746;9.000;2023-05-07T03:01:46;3.87;;;3.10;;
3261;SDS011;1643;47.746;9.000;2023-05-07T03:04:13;4.97;;;2.70;;
3261;SDS011;1643;47.746;9.000;2023-05-07T03:06:39;3.47;;;3.03;;
3261;SDS011;1643;47.746;9.000;2023-05-07T03:09:04;4.10;;;2.97;;
3261;SDS011;1643;47.746;9.000;2023-05-07T03:11:30;3.40;;;3.20;;
3261;SDS011;1643;47.746;9.000;2023-05-07T03:13:56;3.50;;;3.20;;
3261;SDS011;1643;47.746;9.000;2023-05-07T03:16:21;3.30;;;2.97;;
3261;SDS011;1643;47.746;9.000;2023-05-07T03:18:47;3.80;;;2.90;;
3261;SDS011;1643;47.746;9.000;2023-05-07T03:21:12;3.57;;;3.27;;
3261;SDS011;1643;47.746;9.000;2023-05-07T03:23:38;3.40;;;3.10;;
3261;SDS011;1643;47.746;9.000;2023-05-07T03:26:04;3.13;;;2.93;;
3261;SDS011;1643;47.746;9.000;2023-05-07T03:28:29;6.83;;;3.20;;
3261;SDS011;1643;47.746;9.000;2023-05-07T03:30:55;5.63;;;3.67;;
3261;SDS011;1643;47.746;9.000;2023-05-07T03:33:21;3.70;;;3.43;;
3261;SDS011;1643;47.746;9.000;2023-05-07T03:35:47;5.47;;;3.43;;
3261;SDS011;1643;47.746;9.000;2023-05-07T03:38:12;4.27;;;3.70;;
3261;SDS011;1643;47.746;9.000;2023-05-07T03:40:38;4.80;;;3.47;;
3261;SDS011;1643;47.746;9.000;2023-05-07T03:43:04;3.37;;;2.97;;
3261;SDS011;1643;47.746;9.000;2023-05-07T03:45:30;7.67;;;3.30;;
3261;SDS011;1643;47.746;9.000;2023-05-07T03:47:55;6.27;;;3.30;;
3261;SDS011;1643;47.746;9.000;2023-05-07T03:50:21;3.47;;;3.20;;
3261;SDS011;1643;47.746;9.000;2023-05-07T03:52:47;3.27;;;3.07;;
3261;SDS011;1643;47.746;9.000;2023-05-07T03:55:12;5.07;;;2.83;;
3261;SDS011;1643;47.746;9.000;2023-05-07T03:57:38;4.17;;;2.90;;
3261;SDS011;1643;47.746;9.000;2023-05-07T04:00:03;3.67;;;3.37;;
3261;SDS011;1643;47.746;9.000;2023-05-07T04:02:30;3.43;;;3.20;;
3261;SDS011;1643;47.746;9.000;2023-05-07T04:04:56;3.90;;;3.30;;
3261;SDS011;1643;47.746;9.000;2023-05-07T04:07:22;4.10;;;3.23;;
3261;SDS011;1643;47.746;9.000;2023-05-07T04:09:47;3.47;;;3.20;;
3261;SDS011;1643;47.746;9.000;2023-05-07T04:12:13;3.70;;;3.40;;
3261;SDS011;1643;47.746;9.000;2023-05-07T04:14:38;5.63;;;3.33;;
3261;SDS011;1643;47.746;9.000;2023-05-07T04:17:04;4.10;;;3.70;;
3261;SDS011;1643;47.746;9.000;2023-05-07T04:19:32;4.70;;;3.40;;
3261;SDS011;1643;47.746;9.000;2023-05-07T04:21:58;4.13;;;2.93;;
3261;SDS011;1643;47.746;9.000;2023-05-07T04:24:24;3.40;;;3.17;;
3261;SDS011;1643;47.746;9.000;2023-05-07T04:26:50;3.10;;;2.90;;
3261;SDS011;1643;47.746;9.000;2023-05-07T04:29:16;3.60;;;3.13;;
3261;SDS011;1643;47.746;9.000;2023-05-07T04:31:42;2.97;;;2.77;;
3261;SDS011;1643;47.746;9.000;2023-05-07T04:34:09;3.70;;;3.33;;
3261;SDS011;1643;47.746;9.000;2023-05-07T04:36:36;4.43;;;2.80;;
3261;SDS011;1643;47.746;9.000;2023-05-07T04:39:03;3.80;;;3.10;;
3261;SDS011;1643;47.746;9.000;2023-05-07T04:41:29;4.00;;;3.10;;
3261;SDS011;1643;47.746;9.000;2023-05-07T04:43:55;4.10;;;3.70;;
3261;SDS011;1643;47.746;9.000;2023-05-07T04:46:21;3.50;;;3.23;;
3261;SDS011;1643;47.746;9.000;2023-05-07T04:48:48;4.20;;;3.90;;
3261;SDS011;1643;47.746;9.000;2023-05-07T04:51:14;3.17;;;2.97;;
3261;SDS011;1643;47.746;9.000;2023-05-07T04:53:39;3.50;;;3.20;;
3261;SDS011;1643;47.746;9.000;2023-05-07T04:56:05;3.40;;;3.10;;
3261;SDS011;1643;47.746;9.000;2023-05-07T04:58:31;5.77;;;3.70;;
3261;SDS011;1643;47.746;9.000;2023-05-07T05:00:57;3.47;;;3.20;;
3261;SDS011;1643;47.746;9.000;2023-05-07T05:03:23;3.70;;;3.40;;
3261;SDS011;1643;47.746;9.000;2023-05-07T05:05:49;3.80;;;3.50;;
3261;SDS011;1643;47.746;9.000;2023-05-07T05:08:16;3.20;;;3.00;;
3261;SDS011;1643;47.746;9.000;2023-05-07T05:10:42;3.50;;;3.20;;
3261;SDS011;1643;47.746;9.000;2023-05-07T05:13:08;4.07;;;3.47;;
3261;SDS011;1643;47.746;9.000;2023-05-07T05:15:34;6.43;;;4.23;;
3261;SDS011;1643;47.746;9.000;2023-05-07T05:18:00;4.40;;;3.90;;
3261;SDS011;1643;47.746;9.000;2023-05-07T05:20:26;4.23;;;3.70;;
3261;SDS011;1643;47.746;9.000;2023-05-07T05:22:52;3.73;;;3.43;;
3261;SDS011;1643;47.746;9.000;2023-05-07T05:25:17;3.87;;;3.57;;
3261;SDS011;1643;47.746;9.000;2023-05-07T05:27:43;4.23;;;3.83;;
3261;SDS011;1643;47.746;9.000;2023-05-07T05:30:08;7.10;;;4.57;;
3261;SDS011;1643;47.746;9.000;2023-05-07T05:32:34;6.00;;;4.13;;
3261;SDS011;1643;47.746;9.000;2023-05-07T05:35:00;5.00;;;4.40;;
3261;SDS011;1643;47.746;9.000;2023-05-07T05:37:25;4.63;;;3.90;;
3261;SDS011;1643;47.746;9.000;2023-05-07T05:39:52;5.00;;;4.50;;
3261;SDS011;1643;47.746;9.000;2023-05-07T05:42:19;5.20;;;4.80;;
3261;SDS011;1643;47.746;9.000;2023-05-07T05:44:45;7.10;;;5.47;;
3261;SDS011;1643;47.746;9.000;2023-05-07T05:47:10;5.83;;;5.33;;
3261;SDS011;1643;47.746;9.000;2023-05-07T05:49:36;6.83;;;5.93;;
3261;SDS011;1643;47.746;9.000;2023-05-07T05:52:02;8.00;;;5.93;;
3261;SDS011;1643;47.746;9.000;2023-05-07T05:54:28;6.20;;;5.60;;
3261;SDS011;1643;47.746;9.000;2023-05-07T05:56:53;5.73;;;5.10;;
3261;SDS011;1643;47.746;9.000;2023-05-07T05:59:19;7.40;;;5.53;;
3261;SDS011;1643;47.746;9.000;2023-05-07T06:01:45;6.03;;;5.47;;
3261;SDS011;1643;47.746;9.000;2023-05-07T06:04:10;7.90;;;5.23;;
3261;SDS011;1643;47.746;9.000;2023-05-07T06:06:36;5.50;;;5.00;;
3261;SDS011;1643;47.746;9.000;2023-05-07T06:09:01;6.40;;;5.27;;
3261;SDS011;1643;47.746;9.000;2023-05-07T06:11:27;5.60;;;5.10;;
3261;SDS011;1643;47.746;9.000;2023-05-07T06:13:53;5.80;;;5.30;;
3261;SDS011;1643;47.746;9.000;2023-05-07T06:16:18;5.70;;;5.20;;
3261;SDS011;1643;47.746;9.000;2023-05-07T06:18:44;5.17;;;4.67;;
3261;SDS011;1643;47.746;9.000;2023-05-07T06:21:11;6.23;;;5.63;;
3261;SDS011;1643;47.746;9.000;2023-05-07T06:23:38;4.97;;;4.47;;
3261;SDS011;1643;47.746;9.000;2023-05-07T06:26:05;5.43;;;4.93;;
3261;SDS011;1643;47.746;9.000;2023-05-07T06:28:31;7.37;;;5.00;;
3261;SDS011;1643;47.746;9.000;2023-05-07T06:31:16;6.10;;;4.97;;
3261;SDS011;1643;47.746;9.000;2023-05-07T06:33:45;5.70;;;5.20;;
3261;SDS011;1643;47.746;9.000;2023-05-07T06:36:11;5.47;;;4.93;;
3261;SDS011;1643;47.746;9.000;2023-05-07T06:38:37;6.10;;;5.40;;
3261;SDS011;1643;47.746;9.000;2023-05-07T06:41:03;9.40;;;5.33;;
3261;SDS011;1643;47.746;9.000;2023-05-07T06:43:30;5.67;;;5.00;;
3261;SDS011;1643;47.746;9.000;2023-05-07T06:45:56;5.43;;;4.57;;
3261;SDS011;1643;47.746;9.000;2023-05-07T06:48:21;6.23;;;5.40;;
3261;SDS011;1643;47.746;9.000;2023-05-07T06:50:47;5.27;;;4.80;;
3261;SDS011;1643;47.746;9.000;2023-05-07T06:53:12;6.03;;;5.43;;
3261;SDS011;1643;47.746;9.000;2023-05-07T06:55:38;5.83;;;5.10;;
3261;SDS011;1643;47.746;9.000;2023-05-07T06:58:04;5.77;;;4.90;;
3261;SDS011;1643;47.746;9.000;2023-05-07T07:00:30;5.77;;;5.17;;
3261;SDS011;1643;47.746;9.000;2023-05-07T07:02:56;5.90;;;5.27;;
3261;SDS011;1643;47.746;9.000;2023-05-07T07:05:22;8.27;;;5.93;;
3261;SDS011;1643;47.746;9.000;2023-05-07T07:07:48;6.10;;;5.20;;
3261;SDS011;1643;47.746;9.000;2023-05-07T07:10:18;6.43;;;5.77;;
3261;SDS011;1643;47.746;9.000;2023-05-07T07:12:48;11.60;;;6.60;;
3261;SDS011;1643;47.746;9.000;2023-05-07T07:15:14;5.50;;;5.10;;
3261;SDS011;1643;47.746;9.000;2023-05-07T07:17:40;8.37;;;6.27;;
3261;SDS011;1643;47.746;9.000;2023-05-07T07:20:06;6.10;;;5.50;;
3261;SDS011;1643;47.746;9.000;2023-05-07T07:22:32;5.60;;;5.10;;
3261;SDS011;1643;47.746;9.000;2023-05-07T07:24:58;9.10;;;5.33;;
3261;SDS011;1643;47.746;9.000;2023-05-07T07:27:23;7.50;;;5.83;;
3261;SDS011;1643;47.746;9.000;2023-05-07T07:29:49;6.40;;;5.70;;
3261;SDS011;1643;47.746;9.000;2023-05-07T07:32:15;6.53;;;5.90;;
3261;SDS011;1643;47.746;9.000;2023-05-07T07:34:40;6.33;;;5.50;;
3261;SDS011;1643;47.746;9.000;2023-05-07T07:37:06;6.57;;;5.97;;
3261;SDS011;1643;47.746;9.000;2023-05-07T07:39:32;7.10;;;5.53;;
3261;SDS011;1643;47.746;9.000;2023-05-07T07:41:58;6.53;;;5.93;;
3261;SDS011;1643;47.746;9.000;2023-05-07T07:44:24;7.20;;;4.63;;
3261;SDS011;1643;47.746;9.000;2023-05-07T07:46:50;5.70;;;5.20;;
3261;SDS011;1643;47.746;9.000;2023-05-07T07:49:15;7.63;;;6.10;;
3261;SDS011;1643;47.746;9.000;2023-05-07T07:51:41;7.93;;;5.03;;
3261;SDS011;1643;47.746;9.000;2023-05-07T07:54:07;4.90;;;4.50;;
3261;SDS011;1643;47.746;9.000;2023-05-07T07:56:32;6.57;;;5.43;;
3261;SDS011;1643;47.746;9.000;2023-05-07T07:58:59;7.53;;;5.43;;
3261;SDS011;1643;47.746;9.000;2023-05-07T08:01:25;6.03;;;5.50;;
3261;SDS011;1643;47.746;9.000;2023-05-07T08:03:51;5.07;;;4.60;;
3261;SDS011;1643;47.746;9.000;2023-05-07T08:06:16;6.23;;;5.10;;
3261;SDS011;1643;47.746;9.000;2023-05-07T08:08:42;5.33;;;4.83;;
3261;SDS011;1643;47.746;9.000;2023-05-07T08:11:08;4.93;;;4.43;;
3261;SDS011;1643;47.746;9.000;2023-05-07T08:13:33;5.70;;;5.20;;
3261;SDS011;1643;47.746;9.000;2023-05-07T08:15:59;5.23;;;4.83;;
3261;SDS011;1643;47.746;9.000;2023-05-07T08:18:25;4.93;;;4.53;;
3261;SDS011;1643;47.746;9.000;2023-05-07T08:20:53;5.10;;;4.70;;
3261;SDS011;1643;47.746;9.000;2023-05-07T08:23:19;6.63;;;6.00;;
3261;SDS011;1643;47.746;9.000;2023-05-07T08:25:44;4.50;;;4.10;;
3261;SDS011;1643;47.746;9.000;2023-05-07T08:28:10;5.57;;;5.00;;
3261;SDS011;1643;47.746;9.000;2023-05-07T08:30:36;5.50;;;4.70;;
3261;SDS011;1643;47.746;9.000;2023-05-07T08:33:01;6.20;;;4.57;;
3261;SDS011;1643;47.746;9.000;2023-05-07T08:35:27;5.00;;;4.60;;
3261;SDS011;1643;47.746;9.000;2023-05-07T08:37:53;7.20;;;5.13;;
3261;SDS011;1643;47.746;9.000;2023-05-07T08:40:19;5.90;;;5.40;;
3261;SDS011;1643;47.746;9.000;2023-05-07T08:42:45;6.90;;;5.50;;
3261;SDS011;1643;47.746;9.000;2023-05-07T08:45:13;6.10;;;5.10;;
3261;SDS011;1643;47.746;9.000;2023-05-07T08:47:44;5.90;;;5.37;;
3261;SDS011;1643;47.746;9.000;2023-05-07T08:50:12;5.57;;;5.07;;
3261;SDS011;1643;47.746;9.000;2023-05-07T08:52:38;6.20;;;5.60;;
3261;SDS011;1643;47.746;9.000;2023-05-07T08:55:05;5.40;;;4.90;;
3261;SDS011;1643;47.746;9.000;2023-05-07T08:57:32;10.80;;;5.57;;
3261;SDS011;1643;47.746;9.000;2023-05-07T08:59:58;6.43;;;4.60;;
3261;SDS011;1643;47.746;9.000;2023-05-07T09:02:23;4.00;;;3.70;;
3261;SDS011;1643;47.746;9.000;2023-05-07T09:04:49;6.90;;;4.60;;
3261;SDS011;1643;47.746;9.000;2023-05-07T09:07:15;5.17;;;4.67;;
3261;SDS011;1643;47.746;9.000;2023-05-07T09:09:42;4.37;;;3.97;;
3261;SDS011;1643;47.746;9.000;2023-05-07T09:12:09;4.90;;;4.50;;
3261;SDS011;1643;47.746;9.000;2023-05-07T09:14:35;6.60;;;4.83;;
3261;SDS011;1643;47.746;9.000;2023-05-07T09:17:00;5.73;;;5.17;;
3261;SDS011;1643;47.746;9.000;2023-05-07T09:19:26;5.50;;;4.30;;
3261;SDS011;1643;47.746;9.000;2023-05-07T09:22:02;5.17;;;4.17;;
3261;SDS011;1643;47.746;9.000;2023-05-07T09:24:28;3.93;;;3.63;;
3261;SDS011;1643;47.746;9.000;2023-05-07T09:27:00;4.37;;;3.67;;
3261;SDS011;1643;47.746;9.000;2023-05-07T09:29:27;4.53;;;3.80;;
3261;SDS011;1643;47.746;9.000;2023-05-07T09:31:55;3.43;;;3.13;;
3261;SDS011;1643;47.746;9.000;2023-05-07T09:34:21;6.20;;;3.50;;
3261;SDS011;1643;47.746;9.000;2023-05-07T09:36:47;4.23;;;3.60;;
3261;SDS011;1643;47.746;9.000;2023-05-07T09:39:12;3.50;;;3.20;;
3261;SDS011;1643;47.746;9.000;2023-05-07T09:41:44;3.60;;;3.30;;
3261;SDS011;1643;47.746;9.000;2023-05-07T09:44:14;4.37;;;2.80;;
3261;SDS011;1643;47.746;9.000;2023-05-07T09:46:42;8.10;;;3.30;;
3261;SDS011;1643;47.746;9.000;2023-05-07T09:49:12;3.47;;;3.17;;
3261;SDS011;1643;47.746;9.000;2023-05-07T09:51:51;3.80;;;2.90;;
3261;SDS011;1643;47.746;9.000;2023-05-07T09:54:18;3.70;;;3.17;;
3261;SDS011;1643;47.746;9.000;2023-05-07T09:56:48;4.77;;;3.17;;
3261;SDS011;1643;47.746;9.000;2023-05-07T09:59:14;3.77;;;3.47;;
3261;SDS011;1643;47.746;9.000;2023-05-07T10:01:42;3.00;;;2.70;;
3261;SDS011;1643;47.746;9.000;2023-05-07T10:04:09;3.13;;;2.90;;
3261;SDS011;1643;47.746;9.000;2023-05-07T10:06:35;3.80;;;3.50;;
3261;SDS011;1643;47.746;9.000;2023-05-07T10:09:05;4.57;;;3.20;;
3261;SDS011;1643;47.746;9.000;2023-05-07T10:11:32;3.00;;;2.80;;
3261;SDS011;1643;47.746;9.000;2023-05-07T10:13:59;4.00;;;2.90;;
3261;SDS011;1643;47.746;9.000;2023-05-07T10:16:27;6.57;;;3.50;;
3261;SDS011;1643;47.746;9.000;2023-05-07T10:19:04;2.63;;;2.43;;
3261;SDS011;1643;47.746;9.000;2023-05-07T10:21:31;3.10;;;2.80;;
3261;SDS011;1643;47.746;9.000;2023-05-07T10:24:20;3.47;;;3.13;;
3261;SDS011;1643;47.746;9.000;2023-05-07T10:26:50;4.07;;;3.10;;
3261;SDS011;1643;47.746;9.000;2023-05-07T10:34:29;3.10;;;2.90;;
3261;SDS011;1643;47.746;9.000;2023-05-07T10:37:03;3.50;;;3.00;;
3261;SDS011;1643;47.746;9.000;2023-05-07T10:39:30;3.77;;;2.60;;
3261;SDS011;1643;47.746;9.000;2023-05-07T10:41:56;2.90;;;2.70;;
3261;SDS011;1643;47.746;9.000;2023-05-07T10:44:25;3.83;;;2.93;;
3261;SDS011;1643;47.746;9.000;2023-05-07T10:49:30;3.40;;;3.10;;
3261;SDS011;1643;47.746;9.000;2023-05-07T10:52:15;4.30;;;2.70;;
3261;SDS011;1643;47.746;9.000;2023-05-07T10:57:46;3.20;;;2.47;;
3261;SDS011;1643;47.746;9.000;2023-05-07T11:05:25;2.90;;;2.70;;
3261;SDS011;1643;47.746;9.000;2023-05-07T11:07:55;3.40;;;3.10;;
3261;SDS011;1643;47.746;9.000;2023-05-07T11:10:21;3.20;;;2.97;;
3261;SDS011;1643;47.746;9.000;2023-05-07T11:12:51;4.07;;;3.40;;
3261;SDS011;1643;47.746;9.000;2023-05-07T11:18:07;3.23;;;2.93;;
3261;SDS011;1643;47.746;9.000;2023-05-07T11:26:03;3.23;;;2.90;;
3261;SDS011;1643;47.746;9.000;2023-05-07T11:28:31;3.40;;;3.13;;
3261;SDS011;1643;47.746;9.000;2023-05-07T11:31:01;4.80;;;3.40;;
3261;SDS011;1643;47.746;9.000;2023-05-07T11:33:28;3.20;;;2.90;;
3261;SDS011;1643;47.746;9.000;2023-05-07T11:35:55;3.00;;;2.50;;
3261;SDS011;1643;47.746;9.000;2023-05-07T11:38:21;2.83;;;2.60;;
3261;SDS011;1643;47.746;9.000;2023-05-07T11:40:51;6.07;;;2.47;;
3261;SDS011;1643;47.746;9.000;2023-05-07T11:43:17;3.43;;;2.80;;
3261;SDS011;1643;47.746;9.000;2023-05-07T11:45:47;6.57;;;3.00;;
3261;SDS011;1643;47.746;9.000;2023-05-07T11:48:13;2.60;;;2.37;;
3261;SDS011;1643;47.746;9.000;2023-05-07T11:53:40;4.23;;;2.80;;
3261;SDS011;1643;47.746;9.000;2023-05-07T11:56:11;3.93;;;2.43;;
3261;SDS011;1643;47.746;9.000;2023-05-07T11:58:39;2.47;;;2.33;;
3261;SDS011;1643;47.746;9.000;2023-05-07T12:01:07;2.60;;;2.40;;
3261;SDS011;1643;47.746;9.000;2023-05-07T12:03:37;3.67;;;2.83;;
3261;SDS011;1643;47.746;9.000;2023-05-07T12:06:07;3.20;;;3.00;;
3261;SDS011;1643;47.746;9.000;2023-05-07T12:08:35;5.00;;;2.73;;
3261;SDS011;1643;47.746;9.000;2023-05-07T12:11:02;2.83;;;2.60;;
3261;SDS011;1643;47.746;9.000;2023-05-07T12:13:31;3.20;;;2.90;;
3261;SDS011;1643;47.746;9.000;2023-05-07T12:15:57;3.47;;;3.17;;
3261;SDS011;1643;47.746;9.000;2023-05-07T12:18:23;4.13;;;2.77;;
3261;SDS011;1643;47.746;9.000;2023-05-07T12:20:49;2.70;;;2.50;;
3261;SDS011;1643;47.746;9.000;2023-05-07T12:23:16;3.37;;;3.17;;
3261;SDS011;1643;47.746;9.000;2023-05-07T12:25:42;2.40;;;2.20;;
3261;SDS011;1643;47.746;9.000;2023-05-07T12:28:15;3.77;;;3.17;;
3261;SDS011;1643;47.746;9.000;2023-05-07T12:30:41;3.40;;;3.10;;
3261;SDS011;1643;47.746;9.000;2023-05-07T12:33:12;3.40;;;3.10;;
3261;SDS011;1643;47.746;9.000;2023-05-07T12:35:41;4.60;;;3.13;;
3261;SDS011;1643;47.746;9.000;2023-05-07T12:38:11;3.43;;;3.10;;
3261;SDS011;1643;47.746;9.000;2023-05-07T12:40:45;5.83;;;3.37;;
3261;SDS011;1643;47.746;9.000;2023-05-07T12:43:16;3.30;;;2.73;;
3261;SDS011;1643;47.746;9.000;2023-05-07T12:45:45;3.20;;;2.90;;
3261;SDS011;1643;47.746;9.000;2023-05-07T12:48:13;2.90;;;2.70;;
3261;SDS011;1643;47.746;9.000;2023-05-07T12:50:38;3.37;;;3.07;;
3261;SDS011;1643;47.746;9.000;2023-05-07T12:53:05;3.63;;;3.33;;
3261;SDS011;1643;47.746;9.000;2023-05-07T12:55:34;3.33;;;3.03;;
3261;SDS011;1643;47.746;9.000;2023-05-07T12:58:20;4.93;;;3.07;;
3261;SDS011;1643;47.746;9.000;2023-05-07T13:00:53;3.00;;;2.80;;
3261;SDS011;1643;47.746;9.000;2023-05-07T13:05:51;3.20;;;3.00;;
3261;SDS011;1643;47.746;9.000;2023-05-07T13:11:13;3.33;;;2.90;;
3261;SDS011;1643;47.746;9.000;2023-05-07T13:13:39;3.87;;;3.57;;
3261;SDS011;1643;47.746;9.000;2023-05-07T13:16:06;5.50;;;3.30;;
3261;SDS011;1643;47.746;9.000;2023-05-07T13:18:33;6.77;;;3.13;;
3261;SDS011;1643;47.746;9.000;2023-05-07T13:21:00;3.70;;;3.13;;
3261;SDS011;1643;47.746;9.000;2023-05-07T13:23:26;4.77;;;3.80;;
3261;SDS011;1643;47.746;9.000;2023-05-07T13:25:52;3.43;;;3.13;;
3261;SDS011;1643;47.746;9.000;2023-05-07T13:28:18;3.20;;;2.90;;
3261;SDS011;1643;47.746;9.000;2023-05-07T13:30:45;3.83;;;3.47;;
3261;SDS011;1643;47.746;9.000;2023-05-07T13:33:11;2.60;;;2.07;;
3261;SDS011;1643;47.746;9.000;2023-05-07T13:35:37;3.23;;;2.43;;
3261;SDS011;1643;47.746;9.000;2023-05-07T13:38:03;2.10;;;2.00;;
3261;SDS011;1643;47.746;9.000;2023-05-07T13:40:29;4.60;;;2.03;;
3261;SDS011;1643;47.746;9.000;2023-05-07T13:42:56;1.80;;;1.70;;
3261;SDS011;1643;47.746;9.000;2023-05-07T13:45:23;2.20;;;1.80;;
3261;SDS011;1643;47.746;9.000;2023-05-07T13:47:50;1.70;;;1.60;;
3261;SDS011;1643;47.746;9.000;2023-05-07T13:50:16;3.50;;;1.77;;
3261;SDS011;1643;47.746;9.000;2023-05-07T13:52:43;1.60;;;1.50;;
3261;SDS011;1643;47.746;9.000;2023-05-07T13:55:15;1.53;;;1.43;;
3261;SDS011;1643;47.746;9.000;2023-05-07T13:57:42;1.90;;;1.80;;
3261;SDS011;1643;47.746;9.000;2023-05-07T14:00:08;1.83;;;1.30;;
3261;SDS011;1643;47.746;9.000;2023-05-07T14:02:34;1.67;;;1.57;;
3261;SDS011;1643;47.746;9.000;2023-05-07T14:05:00;1.80;;;1.70;;
3261;SDS011;1643;47.746;9.000;2023-05-07T14:07:25;2.27;;;1.53;;
3261;SDS011;1643;47.746;9.000;2023-05-07T14:09:51;2.83;;;1.70;;
3261;SDS011;1643;47.746;9.000;2023-05-07T14:12:16;1.53;;;1.43;;
3261;SDS011;1643;47.746;9.000;2023-05-07T14:14:42;1.87;;;1.60;;
3261;SDS011;1643;47.746;9.000;2023-05-07T14:17:08;5.63;;;1.63;;
3261;SDS011;1643;47.746;9.000;2023-05-07T14:19:33;1.40;;;1.30;;
3261;SDS011;1643;47.746;9.000;2023-05-07T14:21:59;1.60;;;1.30;;
3261;SDS011;1643;47.746;9.000;2023-05-07T14:24:24;4.23;;;1.33;;
3261;SDS011;1643;47.746;9.000;2023-05-07T14:26:50;1.30;;;1.20;;
3261;SDS011;1643;47.746;9.000;2023-05-07T14:29:16;1.20;;;1.10;;
3261;SDS011;1643;47.746;9.000;2023-05-07T14:31:44;1.27;;;1.17;;
3261;SDS011;1643;47.746;9.000;2023-05-07T14:34:10;2.93;;;2.00;;
3261;SDS011;1643;47.746;9.000;2023-05-07T14:36:35;2.00;;;1.47;;
3261;SDS011;1643;47.746;9.000;2023-05-07T14:39:02;1.63;;;1.53;;
3261;SDS011;1643;47.746;9.000;2023-05-07T14:41:28;1.87;;;1.73;;
3261;SDS011;1643;47.746;9.000;2023-05-07T14:43:54;1.40;;;1.30;;
3261;SDS011;1643;47.746;9.000;2023-05-07T14:46:20;1.90;;;1.70;;
3261;SDS011;1643;47.746;9.000;2023-05-07T14:48:45;4.13;;;1.77;;
3261;SDS011;1643;47.746;9.000;2023-05-07T14:51:11;1.93;;;1.83;;
3261;SDS011;1643;47.746;9.000;2023-05-07T14:53:38;2.03;;;1.47;;
3261;SDS011;1643;47.746;9.000;2023-05-07T14:56:04;1.80;;;1.70;;
3261;SDS011;1643;47.746;9.000;2023-05-07T14:58:30;7.80;;;2.13;;
3261;SDS011;1643;47.746;9.000;2023-05-07T15:00:56;2.60;;;1.47;;
3261;SDS011;1643;47.746;9.000;2023-05-07T15:03:22;2.50;;;1.70;;
3261;SDS011;1643;47.746;9.000;2023-05-07T15:05:48;1.50;;;1.40;;
3261;SDS011;1643;47.746;9.000;2023-05-07T15:08:16;2.13;;;1.70;;
3261;SDS011;1643;47.746;9.000;2023-05-07T15:10:42;2.27;;;1.50;;
3261;SDS011;1643;47.746;9.000;2023-05-07T15:13:08;1.80;;;1.63;;
3261;SDS011;1643;47.746;9.000;2023-05-07T15:15:35;7.13;;;2.10;;
3261;SDS011;1643;47.746;9.000;2023-05-07T15:18:01;2.07;;;1.83;;
3261;SDS011;1643;47.746;9.000;2023-05-07T15:20:27;1.70;;;1.50;;
3261;SDS011;1643;47.746;9.000;2023-05-07T15:22:52;4.63;;;1.83;;
3261;SDS011;1643;47.746;9.000;2023-05-07T15:25:18;2.90;;;1.80;;
3261;SDS011;1643;47.746;9.000;2023-05-07T15:27:44;2.00;;;1.90;;
3261;SDS011;1643;47.746;9.000;2023-05-07T15:30:10;1.70;;;1.60;;
3261;SDS011;1643;47.746;9.000;2023-05-07T15:32:37;2.80;;;1.70;;
3261;SDS011;1643;47.746;9.000;2023-05-07T15:35:03;1.90;;;1.80;;
3261;SDS011;1643;47.746;9.000;2023-05-07T15:37:30;2.63;;;1.67;;
3261;SDS011;1643;47.746;9.000;2023-05-07T15:39:56;1.60;;;1.50;;
3261;SDS011;1643;47.746;9.000;2023-05-07T15:42:21;2.83;;;1.90;;
3261;SDS011;1643;47.746;9.000;2023-05-07T15:44:48;1.60;;;1.50;;